createdAt,value
2022-10-12T00:03:17.513Z,101934.87
2022-10-12T00:08:40.239Z,101937.93
2022-10-12T00:14:03.334Z,101943.94
2022-10-12T00:19:25.944Z,101937.17
2022-10-12T00:24:48.098Z,101947.30
2022-10-12T00:30:10.900Z,101957.47
2022-10-12T00:35:34.730Z,101946.33
2022-10-12T00:40:56.860Z,101952.23
2022-10-12T00:46:26.302Z,101954.41
2022-10-12T00:51:49.110Z,101959.83
2022-10-12T00:57:13.650Z,101967.19
2022-10-12T01:02:37.416Z,101963.86
2022-10-12T01:08:00.899Z,101962.48
2022-10-12T01:13:24.693Z,101974.08
2022-10-12T01:18:51.767Z,101968.16
2022-10-12T01:24:43.148Z,101973.23
2022-10-12T01:30:15.777Z,101967.91
2022-10-12T01:36:07.211Z,101959.32
2022-10-12T01:41:46.541Z,101960.42
2022-10-12T01:47:09.595Z,101956.05
2022-10-12T01:52:45.293Z,101961.34
2022-10-12T01:58:12.855Z,101960.44
2022-10-12T02:03:43.174Z,101970.39
2022-10-12T02:09:13.159Z,101970.24
2022-10-12T02:14:46.017Z,101975.03
2022-10-12T02:20:11.584Z,101967.59
2022-10-12T02:25:36.742Z,101971.02
2022-10-12T02:31:36.824Z,101975.56
2022-10-12T02:37:19.083Z,101973.77
2022-10-12T02:43:08.799Z,101971.98
2022-10-12T02:48:12.297Z,101976.52
2022-10-12T02:53:35.938Z,101975.70
2022-10-12T02:59:01.132Z,101983.67
2022-10-12T03:04:24.040Z,101974.94
2022-10-12T03:09:46.537Z,101979.27
2022-10-12T03:15:08.781Z,101976.57
2022-10-12T03:20:31.334Z,101973.23
2022-10-12T03:25:54.442Z,101970.43
2022-10-12T03:31:17.177Z,101976.66
2022-10-12T03:36:39.387Z,101976.92
2022-10-12T03:42:01.525Z,101972.41
2022-10-12T03:47:24.139Z,101977.59
2022-10-12T03:52:46.291Z,101977.69
2022-10-12T03:58:09.057Z,101983.42
2022-10-12T04:03:31.244Z,101985.26
2022-10-12T04:08:54.778Z,101986.04
2022-10-12T04:14:16.906Z,101988.88
2022-10-12T04:19:39.923Z,101982.97
2022-10-12T04:25:02.581Z,101997.16
2022-10-12T04:30:25.598Z,102001.51
2022-10-12T04:35:48.268Z,102004.34
2022-10-12T04:41:10.892Z,102003.61
2022-10-12T04:46:33.443Z,102000.13
2022-10-12T04:51:55.596Z,102010.88
2022-10-12T04:57:18.186Z,102007.31
2022-10-12T05:02:40.663Z,102013.48
2022-10-12T05:08:03.309Z,102021.75
2022-10-12T05:13:26.771Z,102018.34
2022-10-12T05:18:48.886Z,102020.30
2022-10-12T05:24:11.746Z,102023.23
2022-10-12T05:29:33.878Z,102027.55
2022-10-12T05:34:56.022Z,102032.66
2022-10-12T05:40:18.495Z,102034.48
2022-10-12T05:45:40.646Z,102036.22
2022-10-12T05:51:06.836Z,102039.67
2022-10-12T05:56:28.997Z,102043.03
2022-10-12T06:01:51.206Z,102042.95
2022-10-12T06:07:13.395Z,102050.91
2022-10-12T06:12:36.078Z,102046.22
2022-10-12T06:17:58.736Z,102045.05
2022-10-12T06:23:20.898Z,102051.84
2022-10-12T06:28:45.153Z,102064.58
2022-10-12T06:34:07.393Z,102060.61
2022-10-12T06:39:29.732Z,102058.53
2022-10-12T06:44:51.931Z,102070.48
2022-10-12T06:50:14.805Z,102074.58
2022-10-12T06:55:37.628Z,102084.05
2022-10-12T07:01:00.352Z,102081.55
2022-10-12T07:06:27.420Z,102091.52
2022-10-12T07:11:50.050Z,102093.25
2022-10-12T07:17:12.593Z,102092.48
2022-10-12T07:22:34.873Z,102088.85
2022-10-12T07:27:58.786Z,102101.97
2022-10-12T07:33:21.900Z,102084.95
2022-10-12T07:38:48.521Z,102095.60
2022-10-12T07:44:14.766Z,102096.48
2022-10-12T07:49:37.015Z,102089.45
2022-10-12T07:54:59.200Z,102091.25
2022-10-12T08:00:22.492Z,102093.56
2022-10-12T08:05:45.481Z,102092.99
2022-10-12T08:11:08.292Z,102084.83
2022-10-12T08:16:33.691Z,102084.20
2022-10-12T08:21:56.951Z,102085.98
2022-10-12T08:27:19.065Z,102083.28
2022-10-12T08:32:43.297Z,102088.82
2022-10-12T08:38:06.897Z,102087.34
2022-10-12T08:43:52.228Z,102082.47
2022-10-12T08:49:21.759Z,102076.84
2022-10-12T08:54:50.069Z,102080.91
2022-10-12T09:00:13.482Z,102083.44
2022-10-12T09:05:46.951Z,102082.70
2022-10-12T09:11:39.610Z,102080.55
2022-10-12T09:17:09.324Z,102080.27
2022-10-12T09:22:41.943Z,102072.05
2022-10-12T09:28:07.118Z,102067.98
2022-10-12T09:33:38.241Z,102071.13
2022-10-12T09:39:01.852Z,102066.07
2022-10-12T09:44:28.395Z,102065.94
2022-10-12T09:50:06.934Z,102059.23
2022-10-12T09:55:38.340Z,102071.20
2022-10-12T10:01:22.040Z,102075.95
2022-10-12T10:06:45.680Z,102066.20
2022-10-12T10:12:29.090Z,102064.72
2022-10-12T10:17:54.589Z,102064.92
2022-10-12T10:23:31.552Z,102053.91
2022-10-12T10:28:57.910Z,102048.32
2022-10-12T10:34:28.329Z,102046.42
2022-10-12T10:39:55.603Z,102047.36
2022-10-12T10:45:22.460Z,102047.34
2022-10-12T10:50:48.579Z,102042.58
2022-10-12T10:56:24.393Z,102041.31
2022-10-12T11:02:07.136Z,102043.59
2022-10-12T11:07:52.604Z,102042.23
2022-10-12T11:13:22.818Z,102038.87
2022-10-12T11:18:52.858Z,102040.80
2022-10-12T11:24:40.417Z,102041.73
2022-10-12T11:30:09.927Z,102040.56
2022-10-12T11:35:42.772Z,102030.97
2022-10-12T11:41:35.120Z,102031.97
2022-10-12T11:46:50.626Z,102021.46
2022-10-12T11:52:16.922Z,102032.02
2022-10-12T11:57:42.612Z,102030.53
2022-10-12T12:03:24.840Z,102032.54
2022-10-12T12:09:03.660Z,102034.08
2022-10-12T12:14:49.105Z,102033.23
2022-10-12T12:20:26.887Z,102018.17
2022-10-12T12:25:50.318Z,102023.30
2022-10-12T12:31:26.161Z,102015.66
2022-10-12T12:36:54.543Z,102024.62
2022-10-12T12:42:21.699Z,102026.67
2022-10-12T12:47:58.107Z,102024.16
2022-10-12T12:53:27.876Z,102023.05
2022-10-12T12:59:29.852Z,102021.80
2022-10-12T13:05:09.669Z,102015.75
2022-10-12T13:11:04.119Z,102003.22
2022-10-12T13:22:35.551Z,102015.00
2022-10-12T13:28:06.406Z,102010.46
2022-10-12T13:33:39.717Z,102002.99
2022-10-12T13:39:04.233Z,102010.12
2022-10-12T13:44:39.553Z,102013.47
2022-10-12T13:50:02.501Z,102015.41
2022-10-12T13:55:31.536Z,102005.07
2022-10-12T14:00:55.941Z,102013.58
2022-10-12T14:06:31.677Z,102009.37
2022-10-12T14:11:55.148Z,102006.42
2022-10-12T14:17:25.664Z,102010.39
2022-10-12T14:22:51.132Z,102010.78
2022-10-12T14:28:24.039Z,102005.60
2022-10-12T14:33:47.531Z,102007.07
2022-10-12T14:39:19.881Z,102002.17
2022-10-12T14:44:50.849Z,101997.20
2022-10-12T14:50:18.254Z,101991.98
2022-10-12T14:55:44.502Z,101988.95
2022-10-12T15:01:07.449Z,101992.04
2022-10-12T15:06:31.639Z,101991.98
2022-10-12T15:11:53.805Z,101989.02
2022-10-12T15:17:19.740Z,101980.54
2022-10-12T15:22:45.117Z,101976.98
2022-10-12T15:28:08.490Z,101975.06
2022-10-12T15:33:31.957Z,101977.34
2022-10-12T15:38:54.156Z,101964.25
2022-10-12T15:44:19.863Z,101964.41
2022-10-12T15:49:42.550Z,101959.58
2022-10-12T15:55:04.671Z,101965.09
2022-10-12T16:00:31.734Z,101957.66
2022-10-12T16:05:55.052Z,101956.82
2022-10-12T16:11:19.601Z,101964.84
2022-10-12T16:16:41.714Z,101954.52
2022-10-12T16:22:05.411Z,101956.19
2022-10-12T16:27:27.626Z,101957.58
2022-10-12T16:32:49.840Z,101964.20
2022-10-12T16:38:12.059Z,101966.36
2022-10-12T16:43:34.372Z,101957.08
2022-10-12T16:48:56.805Z,101970.61
2022-10-12T16:54:19.214Z,101967.32
2022-10-12T16:59:41.992Z,101969.20
2022-10-12T17:05:04.800Z,101964.01
2022-10-12T17:10:27.308Z,101968.06
2022-10-12T17:15:54.501Z,101966.59
2022-10-12T17:21:17.263Z,101969.52
2022-10-12T17:26:41.084Z,101971.66
2022-10-12T17:32:05.251Z,101980.26
2022-10-12T17:37:28.530Z,101970.15
2022-10-12T17:42:51.126Z,101970.30
2022-10-12T17:48:14.936Z,101968.02
2022-10-12T17:53:38.319Z,101972.78
2022-10-12T17:59:03.772Z,101973.45
2022-10-12T18:04:26.172Z,101969.43
2022-10-12T18:09:49.257Z,101965.98
2022-10-12T18:15:12.385Z,101966.27
2022-10-12T18:20:34.533Z,101967.75
2022-10-12T18:25:58.608Z,101963.69
2022-10-12T18:31:23.158Z,101955.06
2022-10-12T18:36:46.104Z,101960.22
2022-10-12T18:42:10.182Z,101965.13
2022-10-12T18:47:32.526Z,101965.69
2022-10-12T18:52:55.341Z,101963.36
2022-10-12T18:58:18.597Z,101965.02
2022-10-12T19:03:41.783Z,101970.30
2022-10-12T19:09:05.044Z,101966.83
2022-10-12T19:14:29.395Z,101965.47
2022-10-12T19:19:51.702Z,101978.89
2022-10-12T19:25:14.809Z,101967.84
2022-10-12T19:30:37.154Z,101967.00
2022-10-12T19:35:59.485Z,101965.98
2022-10-12T19:41:21.985Z,101955.37
2022-10-12T19:46:47.273Z,101960.13
2022-10-12T19:52:09.832Z,101951.41
2022-10-12T19:57:35.415Z,101951.66
2022-10-12T20:02:56.836Z,101953.33
2022-10-12T20:08:19.045Z,101958.69
2022-10-12T20:13:42.090Z,101956.33
2022-10-12T20:19:05.436Z,101958.45
2022-10-12T20:24:28.366Z,101958.39
2022-10-12T20:29:50.521Z,101951.41
2022-10-12T20:35:12.853Z,101953.27
2022-10-12T20:40:34.996Z,101955.81
2022-10-12T20:45:58.097Z,101958.69
2022-10-12T20:51:27.931Z,101955.48
2022-10-12T20:56:52.677Z,101962.37
2022-10-12T21:02:16.050Z,101968.45
2022-10-12T21:07:38.573Z,101964.98
2022-10-12T21:13:00.904Z,101967.91
2022-10-12T21:18:23.083Z,101963.21
2022-10-12T21:23:46.931Z,101962.96
2022-10-12T21:29:10.445Z,101966.80
2022-10-12T21:34:32.571Z,101962.86
2022-10-12T21:39:55.211Z,101966.12
2022-10-12T21:45:18.029Z,101968.59
2022-10-12T21:50:40.999Z,101966.91
2022-10-12T21:56:03.213Z,101959.00
2022-10-12T22:01:34.519Z,101960.74
2022-10-12T22:07:00.459Z,101960.71
2022-10-12T22:12:21.160Z,101966.77
2022-10-12T22:17:43.762Z,101964.38
2022-10-12T22:23:05.998Z,101954.94
2022-10-12T22:28:28.675Z,101958.98
2022-10-12T22:33:50.937Z,101958.34
2022-10-12T22:39:13.080Z,101953.29
2022-10-12T22:44:35.257Z,101952.42
2022-10-12T22:49:57.396Z,101950.81
2022-10-12T22:55:20.746Z,101954.83
2022-10-12T23:00:43.085Z,101946.97
2022-10-12T23:06:08.333Z,101954.34
2022-10-12T23:11:36.259Z,101944.91
2022-10-12T23:16:58.404Z,101943.41
2022-10-12T23:22:20.976Z,101945.03
2022-10-12T23:27:43.448Z,101947.04
2022-10-12T23:33:06.376Z,101948.31
2022-10-12T23:38:28.519Z,101939.86
2022-10-12T23:43:51.050Z,101945.46
2022-10-12T23:49:13.202Z,101941.21
2022-10-12T23:54:36.532Z,101947.61
2022-10-12T23:59:59.813Z,101938.86
